createdAt,value
2024-02-15T00:00:25.685Z,100594.66
2024-02-15T00:02:52.100Z,100593.72
2024-02-15T00:05:18.369Z,100587.69
2024-02-15T00:07:44.552Z,100592.97
2024-02-15T00:10:10.781Z,100591.19
2024-02-15T00:12:37.070Z,100591.06
2024-02-15T00:15:03.375Z,100599.81
2024-02-15T00:17:29.694Z,100591.13
2024-02-15T00:19:55.958Z,100596.53
2024-02-15T00:22:22.223Z,100593.06
2024-02-15T00:24:48.404Z,100591.41
2024-02-15T00:27:14.740Z,100601.09
2024-02-15T00:29:41.023Z,100602.25
2024-02-15T00:32:07.403Z,100609.53
2024-02-15T00:34:33.995Z,100605.66
2024-02-15T00:37:00.507Z,100603.38
2024-02-15T00:39:26.733Z,100592.47
2024-02-15T00:41:53.033Z,100602.22
2024-02-15T00:44:19.285Z,100598.66
2024-02-15T00:46:45.527Z,100594.41
2024-02-15T00:49:11.968Z,100597.13
2024-02-15T00:51:38.314Z,100597.25
2024-02-15T00:54:04.627Z,100600.00
2024-02-15T00:56:30.990Z,100600.00
2024-02-15T00:58:57.215Z,100602.78
2024-02-15T01:01:23.450Z,100595.06
2024-02-15T01:03:49.739Z,100593.44
2024-02-15T01:06:16.054Z,100596.09
2024-02-15T01:08:42.303Z,100591.06
2024-02-15T01:11:08.536Z,100591.25
2024-02-15T01:13:34.792Z,100596.56
2024-02-15T01:16:01.017Z,100585.16
2024-02-15T01:18:27.271Z,100592.59
2024-02-15T01:20:53.564Z,100587.84
2024-02-15T01:23:19.834Z,100591.88
2024-02-15T01:25:46.032Z,100587.31
2024-02-15T01:28:12.245Z,100588.13
2024-02-15T01:30:38.484Z,100583.03
2024-02-15T01:33:04.787Z,100590.44
2024-02-15T01:35:31.197Z,100589.25
2024-02-15T01:37:57.430Z,100589.09
2024-02-15T01:40:23.676Z,100589.81
2024-02-15T01:42:49.912Z,100580.22
2024-02-15T01:45:16.274Z,100581.94
2024-02-15T01:47:42.775Z,100585.91
2024-02-15T01:50:09.106Z,100578.94
2024-02-15T01:52:35.339Z,100582.53
2024-02-15T01:55:01.569Z,100575.47
2024-02-15T01:57:27.742Z,100576.47
2024-02-15T01:59:54.121Z,100578.22
2024-02-15T02:02:36.674Z,100580.00
2024-02-15T02:05:03.007Z,100579.13
2024-02-15T02:07:29.186Z,100579.13
2024-02-15T02:09:55.370Z,100587.00
2024-02-15T02:12:21.600Z,100574.88
2024-02-15T02:14:47.781Z,100564.47
2024-02-15T02:17:14.028Z,100560.97
2024-02-15T02:19:40.402Z,100559.19
2024-02-15T02:22:06.674Z,100563.56
2024-02-15T02:24:32.891Z,100555.75
2024-02-15T02:26:59.168Z,100555.63
2024-02-15T02:29:25.380Z,100552.91
2024-02-15T02:31:51.604Z,100565.06
2024-02-15T02:34:17.891Z,100558.97
2024-02-15T02:36:44.236Z,100553.69
2024-02-15T02:39:10.518Z,100563.25
2024-02-15T02:41:36.832Z,100555.44
2024-02-15T02:44:03.096Z,100551.88
2024-02-15T02:46:29.312Z,100549.06
2024-02-15T02:48:55.608Z,100550.75
2024-02-15T02:51:22.005Z,100550.72
2024-02-15T02:53:48.425Z,100544.31
2024-02-15T02:56:14.795Z,100542.81
2024-02-15T02:58:41.054Z,100540.28
2024-02-15T03:01:07.246Z,100543.72
2024-02-15T03:03:33.431Z,100540.97
2024-02-15T03:05:59.730Z,100538.28
2024-02-15T03:08:26.002Z,100537.53
2024-02-15T03:10:52.217Z,100542.81
2024-02-15T03:13:18.446Z,100547.91
2024-02-15T03:15:44.596Z,100543.41
2024-02-15T03:18:10.958Z,100548.34
2024-02-15T03:20:37.208Z,100553.50
2024-02-15T03:23:03.481Z,100550.09
2024-02-15T03:25:29.663Z,100559.88
2024-02-15T03:27:55.869Z,100557.25
2024-02-15T03:30:22.126Z,100553.19
2024-02-15T03:32:48.412Z,100551.47
2024-02-15T03:35:14.656Z,100557.53
2024-02-15T03:37:40.858Z,100559.34
2024-02-15T03:40:07.185Z,100553.34
2024-02-15T03:42:33.373Z,100556.59
2024-02-15T03:44:59.627Z,100562.03
2024-02-15T03:47:25.914Z,100557.72
2024-02-15T03:49:52.179Z,100556.94
2024-02-15T03:52:18.420Z,100560.41
2024-02-15T03:54:44.628Z,100567.38
2024-02-15T03:57:10.876Z,100570.81
2024-02-15T03:59:37.140Z,100568.22
2024-02-15T04:02:03.349Z,100574.38
2024-02-15T04:04:29.597Z,100566.56
2024-02-15T04:06:55.889Z,100571.66
2024-02-15T04:09:22.151Z,100569.97
2024-02-15T04:11:48.363Z,100560.13
2024-02-15T04:14:14.604Z,100568.88
2024-02-15T04:16:40.791Z,100551.94
2024-02-15T04:19:07.148Z,100570.63
2024-02-15T04:21:33.403Z,100564.25
2024-02-15T04:23:59.654Z,100555.66
2024-02-15T04:26:25.871Z,100558.13
2024-02-15T04:28:52.128Z,100559.88
2024-02-15T04:31:18.313Z,100557.31
2024-02-15T04:33:44.637Z,100553.91
2024-02-15T04:36:10.971Z,100547.19
2024-02-15T04:38:37.230Z,100548.09
2024-02-15T04:41:03.462Z,100542.94
2024-02-15T04:43:29.676Z,100547.31
2024-02-15T04:45:55.914Z,100548.22
2024-02-15T04:48:22.198Z,100525.22
2024-02-15T04:50:48.490Z,100546.38
2024-02-15T04:53:14.758Z,100533.22
2024-02-15T04:55:40.935Z,100542.47
2024-02-15T04:58:07.187Z,100540.66
2024-02-15T05:00:33.423Z,100539.66
2024-02-15T05:02:59.735Z,100538.59
2024-02-15T05:05:26.168Z,100536.94
2024-02-15T05:07:52.501Z,100526.44
2024-02-15T05:10:18.718Z,100533.97
2024-02-15T05:12:44.943Z,100526.38
2024-02-15T05:15:11.393Z,100529.75
2024-02-15T05:17:37.956Z,100526.22
2024-02-15T05:20:04.219Z,100527.16
2024-02-15T05:22:30.465Z,100529.88
2024-02-15T05:24:56.738Z,100528.03
2024-02-15T05:27:22.995Z,100535.94
2024-02-15T05:29:49.234Z,100535.06
2024-02-15T05:32:15.459Z,100550.84
2024-02-15T05:34:42.189Z,100548.28
2024-02-15T05:37:08.561Z,100550.22
2024-02-15T05:39:34.810Z,100553.75
2024-02-15T05:42:01.096Z,100552.91
2024-02-15T05:44:27.324Z,100556.38
2024-02-15T05:46:53.521Z,100553.81
2024-02-15T05:49:19.796Z,100557.84
2024-02-15T05:51:46.169Z,100553.28
2024-02-15T05:54:12.471Z,100560.44
2024-02-15T05:56:38.780Z,100565.66
2024-02-15T05:59:05.004Z,100567.63
2024-02-15T06:01:31.233Z,100574.34
2024-02-15T06:03:57.522Z,100565.59
2024-02-15T06:06:23.912Z,100565.66
2024-02-15T06:08:50.227Z,100573.66
2024-02-15T06:11:16.458Z,100579.72
2024-02-15T06:13:42.685Z,100583.19
2024-02-15T06:16:08.896Z,100602.19
2024-02-15T06:18:35.224Z,100606.72
2024-02-15T06:21:01.688Z,100599.63
2024-02-15T06:23:27.956Z,100605.34
2024-02-15T06:25:54.149Z,100625.13
2024-02-15T06:28:20.360Z,100629.47
2024-02-15T06:30:46.600Z,100645.59
2024-02-15T06:33:12.916Z,100665.34
2024-02-15T06:35:39.227Z,100668.88
2024-02-15T06:38:05.490Z,100678.44
2024-02-15T06:40:31.681Z,100685.44
2024-02-15T06:42:57.906Z,100703.56
2024-02-15T06:45:24.243Z,100713.06
2024-02-15T06:47:50.579Z,100722.41
2024-02-15T06:50:16.815Z,100737.06
2024-02-15T06:52:43.060Z,100751.75
2024-02-15T06:55:09.271Z,100767.25
2024-02-15T06:57:35.522Z,100780.63
2024-02-15T07:00:01.952Z,100796.22
2024-02-15T07:10:48.237Z,62080.50
2024-02-15T07:13:14.480Z,62080.50
2024-02-15T07:15:40.758Z,62080.50
2024-02-15T07:18:07.203Z,62080.50
2024-02-15T07:20:33.487Z,62080.50
2024-02-15T07:22:59.706Z,62080.50
2024-02-15T07:25:28.810Z,62080.50
2024-02-15T07:28:11.770Z,62080.50
2024-02-15T07:30:37.940Z,62080.50
2024-02-15T07:33:04.415Z,62080.50
2024-02-15T07:35:31.851Z,62080.50
2024-02-15T07:37:58.166Z,62080.50
2024-02-15T07:40:24.365Z,62080.50
2024-02-15T07:42:50.571Z,62080.50
2024-02-15T07:45:16.805Z,62080.50
2024-02-15T07:47:43.121Z,62080.50
2024-02-15T07:50:09.449Z,62080.50
2024-02-15T07:52:35.678Z,62080.50
2024-02-15T07:55:01.894Z,62080.50
2024-02-15T07:57:28.093Z,62080.50
2024-02-15T07:59:54.391Z,62080.50
2024-02-15T08:02:20.694Z,62080.50
2024-02-15T08:04:47.017Z,62080.50
2024-02-15T08:07:13.451Z,62080.50
2024-02-15T08:09:41.337Z,62080.50
2024-02-15T08:12:10.329Z,62080.50
2024-02-15T08:14:36.561Z,62080.50
2024-02-15T08:17:02.790Z,62080.50
2024-02-15T08:19:29.144Z,62080.50
2024-02-15T08:21:55.419Z,62080.50
2024-02-15T08:24:21.715Z,62080.50
2024-02-15T08:26:47.955Z,62080.50
2024-02-15T08:29:14.202Z,62080.50
2024-02-15T08:31:40.413Z,62080.50
2024-02-15T08:34:06.670Z,62080.50
2024-02-15T08:36:33.111Z,62080.50
2024-02-15T08:38:59.499Z,62080.50
2024-02-15T08:41:25.722Z,62080.50
2024-02-15T08:43:51.965Z,62080.50
2024-02-15T08:46:18.182Z,62080.50
2024-02-15T08:48:44.562Z,62080.50
2024-02-15T08:51:11.003Z,62080.50
2024-02-15T08:53:38.690Z,62080.50
2024-02-15T08:56:05.025Z,62080.50
2024-02-15T08:58:31.245Z,62080.50
2024-02-15T09:00:57.622Z,62080.50
2024-02-15T09:03:24.036Z,62080.50
2024-02-15T09:05:50.517Z,62080.50
2024-02-15T09:08:16.803Z,62080.50
2024-02-15T09:10:43.019Z,62080.50
2024-02-15T09:13:09.255Z,62080.50
2024-02-15T09:15:35.499Z,62080.50
2024-02-15T09:18:01.807Z,62080.50
2024-02-15T09:20:28.056Z,62080.50
2024-02-15T09:22:54.253Z,62080.50
2024-02-15T09:25:20.550Z,62080.50
2024-02-15T09:27:46.939Z,62080.50
2024-02-15T09:30:13.407Z,62080.50
2024-02-15T09:32:39.782Z,62080.50
2024-02-15T09:35:08.574Z,62080.50
2024-02-15T09:37:34.953Z,62080.50
2024-02-15T09:40:01.217Z,62080.50
2024-02-15T09:42:27.462Z,62080.50
2024-02-15T09:44:53.770Z,62080.50
2024-02-15T09:47:20.017Z,62080.50
2024-02-15T09:49:46.295Z,62080.50
2024-02-15T09:52:12.638Z,62080.50
2024-02-15T09:54:38.951Z,62080.50
2024-02-15T09:57:05.205Z,62080.50
2024-02-15T09:59:31.497Z,62080.50
2024-02-15T10:01:57.695Z,62080.50
2024-02-15T10:04:23.984Z,62080.50
2024-02-15T10:06:50.328Z,62080.50
2024-02-15T10:09:16.665Z,62080.50
2024-02-15T10:11:42.919Z,62080.50
2024-02-15T10:14:09.160Z,62080.50
2024-02-15T10:16:35.372Z,62080.50
2024-02-15T10:19:01.664Z,62080.50
2024-02-15T10:21:28.075Z,62080.50
2024-02-15T10:23:54.341Z,62080.50
2024-02-15T10:26:20.579Z,62080.50
2024-02-15T10:28:46.840Z,62080.50
2024-02-15T10:31:18.893Z,62080.50
2024-02-15T10:33:45.176Z,62080.50
2024-02-15T10:36:11.548Z,62080.50
2024-02-15T10:38:37.881Z,62080.50
2024-02-15T10:41:04.231Z,62080.50
2024-02-15T10:43:30.544Z,62080.50
2024-02-15T10:45:56.753Z,62080.50
2024-02-15T10:48:23.141Z,62080.50
2024-02-15T10:50:49.446Z,62080.50
2024-02-15T10:53:15.653Z,62080.50
2024-02-15T10:55:44.184Z,62080.50
2024-02-15T10:58:11.694Z,62080.50
2024-02-15T11:00:38.014Z,62080.50
2024-02-15T11:03:04.346Z,62080.50
2024-02-15T11:05:30.707Z,62080.50
2024-02-15T11:07:57.171Z,62080.50
2024-02-15T11:10:23.557Z,62080.50
2024-02-15T11:12:51.781Z,62080.50
2024-02-15T11:15:18.784Z,62080.50
2024-02-15T11:17:45.092Z,62080.50
2024-02-15T11:20:11.354Z,62080.50
2024-02-15T11:22:37.588Z,62080.50
2024-02-15T11:25:04.837Z,62080.50
2024-02-15T11:27:31.183Z,62080.50
2024-02-15T11:29:57.696Z,62080.50
2024-02-15T11:32:24.195Z,62080.50
2024-02-15T11:34:50.441Z,62080.50
2024-02-15T11:37:16.692Z,62080.50
2024-02-15T11:39:42.896Z,62080.50
2024-02-15T11:42:09.213Z,62080.50
2024-02-15T11:44:35.550Z,62080.50
2024-02-15T11:47:01.792Z,62080.50
2024-02-15T11:49:28.110Z,62080.50
2024-02-15T11:51:54.316Z,62080.50
2024-02-15T11:54:20.569Z,62080.50
2024-02-15T11:56:49.838Z,62080.50
2024-02-15T11:59:16.546Z,62080.50
2024-02-15T12:01:42.748Z,62080.50
2024-02-15T12:04:09.025Z,62080.50
2024-02-15T12:06:35.386Z,62080.50
2024-02-15T12:09:01.688Z,62080.50
2024-02-15T12:11:27.961Z,62080.50
2024-02-15T12:13:54.175Z,62080.50
2024-02-15T12:16:20.397Z,62080.50
2024-02-15T12:18:46.779Z,62080.50
2024-02-15T12:21:13.110Z,62080.50
2024-02-15T12:23:39.379Z,62080.50
2024-02-15T12:26:05.661Z,62080.50
2024-02-15T12:28:31.926Z,62080.50
2024-02-15T12:30:58.130Z,62080.50
2024-02-15T12:33:24.478Z,62080.50
2024-02-15T12:35:50.797Z,62080.50
2024-02-15T12:38:17.070Z,62080.50
2024-02-15T12:40:45.591Z,62080.50
2024-02-15T12:43:13.072Z,62080.50
2024-02-15T12:45:39.370Z,62080.50
2024-02-15T12:48:05.700Z,62080.50
2024-02-15T12:50:32.100Z,62080.50
2024-02-15T12:52:58.388Z,62080.50
2024-02-15T12:55:24.562Z,62080.50
2024-02-15T12:57:50.740Z,62080.50
2024-02-15T13:00:17.014Z,62080.50
2024-02-15T13:02:44.866Z,62080.50
2024-02-15T13:05:12.200Z,62080.50
2024-02-15T13:07:38.413Z,62080.50
2024-02-15T13:10:04.955Z,62080.50
2024-02-15T13:12:31.235Z,62080.50
2024-02-15T13:14:57.473Z,62080.50
2024-02-15T13:17:23.732Z,62080.50
2024-02-15T13:19:50.039Z,62080.50
2024-02-15T13:22:16.308Z,62080.50
2024-02-15T13:24:42.571Z,62080.50
2024-02-15T13:27:08.875Z,62080.50
2024-02-15T13:29:35.132Z,62080.50
2024-02-15T13:32:01.389Z,62080.50
2024-02-15T13:34:27.749Z,62080.50
2024-02-15T13:36:54.061Z,62080.50
2024-02-15T13:39:20.445Z,62080.50
2024-02-15T13:41:46.681Z,62080.50
2024-02-15T13:44:12.864Z,62080.50
2024-02-15T13:46:39.067Z,62080.50
2024-02-15T13:49:06.242Z,62080.50
2024-02-15T13:51:33.554Z,62080.50
2024-02-15T13:53:59.813Z,62080.50
2024-02-15T13:56:26.098Z,62080.50
2024-02-15T13:58:52.264Z,62080.50
2024-02-15T14:01:18.487Z,62080.50
2024-02-15T14:03:44.747Z,62080.50
2024-02-15T14:06:11.143Z,62080.50
2024-02-15T14:08:37.521Z,62080.50
2024-02-15T14:11:03.839Z,62080.50
2024-02-15T14:13:30.080Z,62080.50
2024-02-15T14:15:56.344Z,62080.50
2024-02-15T14:18:22.748Z,62080.50
2024-02-15T14:20:49.387Z,62080.50
2024-02-15T14:23:16.051Z,62080.50
2024-02-15T14:25:42.412Z,62080.50
2024-02-15T14:28:08.597Z,62080.50
2024-02-15T14:30:34.815Z,62080.50
2024-02-15T14:33:04.116Z,62080.50
2024-02-15T14:35:31.124Z,62080.50
2024-02-15T14:37:57.382Z,62080.50
2024-02-15T14:40:27.418Z,62080.50
2024-02-15T14:42:57.488Z,62080.50
2024-02-15T14:45:23.963Z,62080.50
2024-02-15T14:47:50.254Z,62080.50
2024-02-15T14:50:16.474Z,62080.50
2024-02-15T14:52:42.729Z,62080.50
2024-02-15T14:55:08.990Z,62080.50
2024-02-15T14:57:35.334Z,62080.50
2024-02-15T15:00:01.715Z,62080.50
2024-02-15T15:02:27.971Z,62080.50
2024-02-15T15:04:54.160Z,62080.50
2024-02-15T15:07:20.408Z,62080.50
2024-02-15T15:09:46.665Z,62080.50
2024-02-15T15:12:12.884Z,62080.50
2024-02-15T15:14:39.173Z,62080.50
2024-02-15T15:17:05.461Z,62080.50
2024-02-15T15:19:31.882Z,62080.50
2024-02-15T15:21:58.166Z,62080.50
2024-02-15T15:24:24.485Z,62080.50
2024-02-15T15:26:50.800Z,62080.50
2024-02-15T15:29:17.193Z,62080.50
2024-02-15T15:31:43.426Z,62080.50
2024-02-15T15:34:09.729Z,62080.50
2024-02-15T15:36:36.051Z,62080.50
2024-02-15T15:39:02.340Z,62080.50
2024-02-15T15:41:28.595Z,62080.50
2024-02-15T15:43:54.861Z,62080.50
2024-02-15T15:46:21.118Z,62080.50
2024-02-15T15:48:47.764Z,62080.50
2024-02-15T15:51:14.255Z,62080.50
2024-02-15T15:53:40.884Z,62080.50
2024-02-15T15:56:07.203Z,62080.50
2024-02-15T15:58:33.445Z,62080.50
2024-02-15T16:00:59.733Z,62080.50
2024-02-15T16:03:26.025Z,62080.50
2024-02-15T16:05:52.351Z,62080.50
2024-02-15T16:08:18.771Z,62080.50
2024-02-15T16:10:45.200Z,62080.50
2024-02-15T16:13:11.476Z,62080.50
2024-02-15T16:15:37.784Z,62080.50
2024-02-15T16:18:07.333Z,62080.50
2024-02-15T16:20:33.699Z,62080.50
2024-02-15T16:22:59.969Z,62080.50
2024-02-15T16:25:26.546Z,62080.50
2024-02-15T16:27:52.827Z,62080.50
2024-02-15T16:30:19.049Z,62080.50
2024-02-15T16:32:45.462Z,62080.50
2024-02-15T16:35:12.141Z,62080.50
2024-02-15T16:37:38.592Z,62080.50
2024-02-15T16:40:04.922Z,62080.50
2024-02-15T16:42:31.325Z,62080.50
2024-02-15T16:45:00.467Z,62080.50
2024-02-15T16:47:26.777Z,62080.50
2024-02-15T16:49:53.115Z,62080.50
2024-02-15T16:52:19.443Z,62080.50
2024-02-15T16:54:45.681Z,62080.50
2024-02-15T16:57:15.755Z,62080.50
2024-02-15T16:59:42.609Z,62080.50
2024-02-15T17:02:08.955Z,62080.50
2024-02-15T17:04:35.225Z,62080.50
2024-02-15T17:07:01.621Z,62080.50
2024-02-15T17:09:28.148Z,62080.50
2024-02-15T17:11:54.410Z,62080.50
2024-02-15T17:14:20.629Z,62080.50
2024-02-15T17:16:46.854Z,62080.50
2024-02-15T17:19:13.232Z,62080.50
2024-02-15T17:21:39.579Z,62080.50
2024-02-15T17:24:05.871Z,62080.50
2024-02-15T17:26:32.114Z,62080.50
2024-02-15T17:28:58.617Z,62080.50
2024-02-15T17:31:26.036Z,62080.50
2024-02-15T17:33:54.125Z,62080.50
2024-02-15T17:36:20.393Z,62080.50
2024-02-15T17:38:46.727Z,62080.50
2024-02-15T17:41:12.995Z,62080.50
2024-02-15T17:43:39.184Z,62080.50
2024-02-15T17:46:05.515Z,62080.50
2024-02-15T17:48:31.822Z,62080.50
2024-02-15T17:50:58.092Z,62080.50
2024-02-15T17:53:24.338Z,62080.50
2024-02-15T17:55:50.508Z,62080.50
2024-02-15T17:58:16.765Z,62080.50
2024-02-15T18:00:43.221Z,62080.50
2024-02-15T18:03:09.642Z,62080.50
2024-02-15T18:05:35.957Z,62080.50
2024-02-15T18:08:02.183Z,62080.50
2024-02-15T18:10:28.367Z,62080.50
2024-02-15T18:12:54.633Z,62080.50
2024-02-15T18:15:20.846Z,62080.50
2024-02-15T18:17:47.215Z,62080.50
2024-02-15T18:20:13.522Z,62080.50
2024-02-15T18:22:39.722Z,62080.50
2024-02-15T18:25:05.960Z,62080.50
2024-02-15T18:27:32.193Z,62080.50
2024-02-15T18:29:58.489Z,62080.50
2024-02-15T18:32:24.853Z,62080.50
2024-02-15T18:34:51.114Z,62080.50
2024-02-15T18:37:17.324Z,62080.50
2024-02-15T18:39:43.646Z,62080.50
2024-02-15T18:42:09.975Z,62080.50
2024-02-15T18:44:36.223Z,62080.50
2024-02-15T18:47:02.488Z,62080.50
2024-02-15T18:49:33.206Z,62080.50
2024-02-15T18:52:03.069Z,62080.50
2024-02-15T18:54:29.266Z,62080.50
2024-02-15T18:56:55.533Z,62080.50
2024-02-15T19:02:11.882Z,62080.50
2024-02-15T19:04:38.215Z,62080.50
2024-02-15T19:07:04.535Z,62080.50
2024-02-15T19:09:30.866Z,62080.50
2024-02-15T19:14:52.576Z,62080.50
2024-02-15T19:17:18.839Z,62080.50
2024-02-15T19:19:45.095Z,62080.50
2024-02-15T19:22:11.357Z,62080.50
2024-02-15T19:24:37.609Z,62080.50
2024-02-15T19:27:03.862Z,62080.50
2024-02-15T19:29:43.386Z,62080.50
2024-02-15T19:32:09.613Z,62080.50
2024-02-15T19:34:35.893Z,62080.50
2024-02-15T19:37:11.229Z,62080.50
2024-02-15T19:39:41.576Z,62080.50
2024-02-15T19:42:07.908Z,62080.50
2024-02-15T19:44:41.653Z,62080.50
2024-02-15T19:47:08.889Z,62080.50
2024-02-15T19:49:35.226Z,62080.50
2024-02-15T19:52:01.501Z,62080.50
2024-02-15T19:54:27.748Z,62080.50
2024-02-15T19:56:54.065Z,62080.50
2024-02-15T19:59:20.349Z,62080.50
2024-02-15T20:01:46.663Z,62080.50
2024-02-15T20:04:12.895Z,62080.50
2024-02-15T20:06:39.191Z,62080.50
2024-02-15T20:09:05.643Z,62080.50
2024-02-15T20:11:32.060Z,62080.50
2024-02-15T20:13:58.356Z,62080.50
2024-02-15T20:16:30.243Z,62080.50
2024-02-15T20:18:56.490Z,62080.50
2024-02-15T20:21:24.936Z,62080.50
2024-02-15T20:23:51.246Z,62080.50
2024-02-15T20:26:17.695Z,62080.50
2024-02-15T20:28:44.934Z,62080.50
2024-02-15T20:31:11.135Z,62080.50
2024-02-15T20:33:37.491Z,62080.50
2024-02-15T20:36:05.049Z,62080.50
2024-02-15T20:38:31.346Z,62080.50
2024-02-15T20:40:57.586Z,62080.50
2024-02-15T20:43:24.013Z,62080.50
2024-02-15T20:45:50.302Z,62080.50
2024-02-15T20:48:16.610Z,62080.50
2024-02-15T20:50:44.191Z,62080.50
2024-02-15T20:53:10.515Z,62080.50
2024-02-15T20:55:37.775Z,62080.50
2024-02-15T20:58:04.009Z,62080.50
2024-02-15T21:00:31.181Z,62080.50
2024-02-15T21:02:57.544Z,62080.50
2024-02-15T21:05:24.150Z,62080.50
2024-02-15T21:07:50.701Z,62080.50
2024-02-15T21:10:16.970Z,62080.50
2024-02-15T21:12:43.336Z,62080.50
2024-02-15T21:15:09.589Z,62080.50
2024-02-15T21:17:35.857Z,62080.50
2024-02-15T21:20:02.218Z,62080.50
2024-02-15T21:22:31.530Z,62080.50
2024-02-15T21:24:58.817Z,62080.50
2024-02-15T21:27:25.126Z,62080.50
2024-02-15T21:29:51.380Z,62080.50
2024-02-15T21:32:17.829Z,62080.50
2024-02-15T21:34:44.252Z,62080.50
2024-02-15T21:37:13.023Z,62080.50
2024-02-15T21:39:39.473Z,62080.50
2024-02-15T21:42:05.691Z,62080.50
2024-02-15T21:44:34.680Z,62080.50
2024-02-15T21:47:00.877Z,62080.50
2024-02-15T21:49:27.208Z,62080.50
2024-02-15T21:51:53.492Z,62080.50
2024-02-15T21:54:19.813Z,62080.50
2024-02-15T21:56:46.108Z,62080.50
2024-02-15T21:59:17.399Z,62080.50
2024-02-15T22:01:43.617Z,62080.50
2024-02-15T22:04:09.794Z,62080.50
2024-02-15T22:06:36.140Z,62080.50
2024-02-15T22:09:02.426Z,62080.50
2024-02-15T22:11:28.679Z,62080.50
2024-02-15T22:13:54.954Z,62080.50
2024-02-15T22:16:21.232Z,62080.50
2024-02-15T22:18:47.610Z,62080.50
2024-02-15T22:21:16.230Z,62080.50
2024-02-15T22:23:42.483Z,62080.50
2024-02-15T22:26:08.680Z,62080.50
2024-02-15T22:28:34.924Z,62080.50
2024-02-15T22:31:01.148Z,62080.50
2024-02-15T22:33:27.495Z,62080.50
2024-02-15T22:35:53.889Z,62080.50
2024-02-15T22:38:20.116Z,62080.50
2024-02-15T22:40:46.408Z,62080.50
2024-02-15T22:43:12.621Z,62080.50
2024-02-15T22:45:38.896Z,62080.50
2024-02-15T22:48:05.335Z,62080.50
2024-02-15T22:50:31.647Z,62080.50
2024-02-15T22:52:57.854Z,62080.50
2024-02-15T22:55:24.079Z,62080.50
2024-02-15T22:57:50.306Z,62080.50
2024-02-15T23:00:16.632Z,62080.50
2024-02-15T23:02:42.887Z,62080.50
2024-02-15T23:05:09.204Z,62080.50
2024-02-15T23:07:35.550Z,62080.50
2024-02-15T23:10:01.889Z,62080.50
2024-02-15T23:12:28.171Z,62080.50
2024-02-15T23:14:54.480Z,62080.50
2024-02-15T23:17:22.700Z,62080.50
2024-02-15T23:19:48.917Z,62080.50
2024-02-15T23:22:15.218Z,62080.50
2024-02-15T23:24:41.436Z,62080.50
2024-02-15T23:27:07.637Z,62080.50
2024-02-15T23:29:33.846Z,62080.50
2024-02-15T23:32:00.046Z,62080.50
2024-02-15T23:34:31.228Z,62080.50
2024-02-15T23:37:00.309Z,62080.50
2024-02-15T23:39:26.735Z,62080.50
2024-02-15T23:41:53.269Z,62080.50
2024-02-15T23:44:19.547Z,62080.50
2024-02-15T23:46:45.784Z,62080.50
2024-02-15T23:49:12.171Z,62080.50
2024-02-15T23:51:38.638Z,62080.50
2024-02-15T23:54:04.943Z,62080.50
2024-02-15T23:56:31.168Z,62080.50
2024-02-15T23:58:57.399Z,62080.50
